• Join FlightAware (Why Join?)
  • Login
  • US Flag GB Flag 
18:22 EST


 

Airport Tracker/Info


-or-


 

Live Flight TrackerFlight Track Log ✈ AAY805 ✈ 06-Mar-2014 ✈ KCHA - KPIE

Flight Track Log - Related Links

Times and Time Zones

All times are in EST time to prevent confusion due to time zone crossing. See the AAY805 flight status page for this flight to view local times or setup timezone preferences in your user account.

Time Position Orientation Groundspeed Altitude Reporting Facility
EST Latitude Longitude Course Direction KTS MPH feet Rate Location/Type
09:07 34.8931 -85.1783 161° South 248 285 6,900  Level Atlanta Center
09:08 34.8244 -85.1369 154° Southeast 272 313 9,700 2,050 Climbing Atlanta Center
09:09 34.7478 -85.0931 155° Southeast 272 313 11,000 1,150 Climbing Atlanta Center
09:10 34.6708 -85.0489 155° Southeast 303 349 12,000 1,600 Climbing Atlanta Center
09:11 34.4892 -84.8882 161° South  Level FlightAware Approximate
09:11 34.5753 -84.9897 153° Southeast 359 413 14,200  Level Atlanta Center
09:12 34.4694 -84.9206 152° Southeast 384 442 16,400 2,050 Climbing Atlanta Center
09:13 34.3633 -84.8592 154° Southeast 411 473 18,300 1,900 Climbing Atlanta Center
09:14 34.2531 -84.7978 155° Southeast 423 487 20,200 1,850 Climbing Atlanta Center
09:15 34.1408 -84.7339 155° Southeast 433 498 22,000 2,100 Climbing Atlanta Center
09:16 34.0306 -84.6681 154° Southeast 438 504 24,400 2,450 Climbing Atlanta Center
09:17 33.9244 -84.6147 157° South 433 498 26,900 2,250 Climbing Atlanta Center
09:18 33.8158 -84.6014 174° South 397 457 28,900 1,650 Climbing Atlanta Center
09:19 33.7094 -84.6006 180° South 397 457 30,200 1,050 Climbing Atlanta Center
09:20 33.6053 -84.5950 177° South 385 443 31,000 400 Climbing Atlanta Center
09:21 33.4967 -84.5869 176° South 385 443 31,000 850 Level Atlanta Center
09:22 33.3903 -84.5761 175° South 385 443 32,700 1,000 Climbing Atlanta Center
09:23 33.2942 -84.5681 176° South 372 428 33,000 150 Climbing Atlanta Center
09:24 33.1961 -84.5625 177° South 359 413 33,000  Level Atlanta Center
09:25 33.0961 -84.5594 179° South 359 413 33,000  Level Atlanta Center
09:26 32.9981 -84.5514 176° South 359 413 33,000  Level Atlanta Center
09:27 32.8978 -84.5436 176° South 364 419 33,000  Level Atlanta Center
09:28 32.8100 -84.5356 176° South 364 419 33,000  Level Atlanta Center
09:29 32.6994 -84.5250 175° South 364 419 33,000  Level Atlanta Center
09:30 32.6014 -84.5172 176° South 364 419 33,000  Level Atlanta Center
09:31 32.5033 -84.5117 177° South 364 419 33,000  Level Atlanta Center
09:32 32.4053 -84.5039 176° South 364 419 33,000  Level Atlanta Center
09:33 32.3072 -84.4958 176° South 364 419 33,000  Level Atlanta Center
09:34 32.2092 -84.4906 177° South 364 419 33,000  Level Atlanta Center
09:35 32.1131 -84.4828 176° South 364 419 33,000  Level Atlanta Center
09:36 32.0150 -84.4772 177° South 359 413 33,000  Level Atlanta Center
09:37 31.9228 -84.4689 176° South 358 412 33,000  Level Jacksonville Center
09:38 31.8269 -84.4625 177° South 358 412 33,000  Level Jacksonville Center
09:39 31.7289 -84.4558 177° South 358 412 33,000  Level Jacksonville Center
09:40 31.6331 -84.4494 177° South 358 412 33,000  Level Jacksonville Center
09:41 31.5467 -84.4942 204° Southwest 336 387 33,000  Level Jacksonville Center
09:42 31.5183 -84.6033 253° West 310 357 33,000  Level Jacksonville Center
09:43 31.5061 -84.7128 263° West 316 364 33,000  Level Jacksonville Center
09:44 31.4569 -84.7994 236° Southwest 322 371 33,000  Level Jacksonville Center
09:45 31.3711 -84.8147 189° South 286 329 33,000  Level Jacksonville Center
09:46 31.2758 -84.7717 159° South 295 339 33,000  Level Jacksonville Center
09:47 31.1889 -84.7139 150° Southeast 313 360 33,000  Level Jacksonville Center
09:48 31.0997 -84.6614 153° Southeast 336 387 33,000  Level Jacksonville Center
09:49 31.0086 -84.6158 157° South 351 404 33,000  Level Jacksonville Center
09:50 30.9172 -84.5708 157° South 357 411 33,000  Level Jacksonville Center
09:51 30.8261 -84.5208 155° Southeast 357 411 33,000  Level Jacksonville Center
09:52 30.7328 -84.4683 154° Southeast 357 411 33,000  Level Jacksonville Center
09:53 30.6417 -84.4186 155° Southeast 357 411 33,000  Level Jacksonville Center
09:54 30.5503 -84.3689 155° Southeast 357 411 33,000  Level Jacksonville Center
09:55 30.4694 -84.3194 152° Southeast 357 411 33,000  Level Jacksonville Center
09:56 30.3803 -84.2628 151° Southeast 362 417 33,000  Level Jacksonville Center
09:57 30.2911 -84.2014 149° Southeast 369 425 33,000  Level Jacksonville Center
09:58 30.2019 -84.1422 150° Southeast 369 425 33,000  Level Jacksonville Center
09:59 30.1064 -84.0811 151° Southeast 374 430 33,000  Level Jacksonville Center
10:00 30.0131 -84.0200 150° Southeast 379 436 33,000  Level Jacksonville Center
10:01 29.9197 -83.9589 150° Southeast 379 436 33,000  Level Jacksonville Center
10:02 29.8219 -83.8981 152° Southeast 384 442 33,000  Level Jacksonville Center
10:03 29.7264 -83.8350 150° Southeast 389 448 33,000  Level Jacksonville Center
10:04 29.6289 -83.7694 150° Southeast 394 453 33,000  Level Jacksonville Center
10:05 29.5289 -83.7089 152° Southeast 394 453 33,000 -200 Level Jacksonville Center
10:06 29.4272 -83.6436 151° Southeast 406 467 32,600 -1,700 Descending Jacksonville Center
10:07 29.3231 -83.5808 152° Southeast 418 481 29,600 -2,750 Descending Jacksonville Center
10:08 29.2211 -83.5136 150° Southeast 418 481 27,100 -2,150 Descending Jacksonville Center
10:09 29.1214 -83.4489 150° Southeast 423 487 25,300 -1,750 Descending Jacksonville Center
10:10 29.0214 -83.3842 150° Southeast 413 475 23,600 -1,700 Descending Jacksonville Center
10:11 28.9233 -83.3219 151° Southeast 408 470 21,900 -1,670 Descending Jacksonville Center
10:13 28.7214 -83.1922 151° Southeast 388 447 18,200 -1,701 Descending Miami Center
10:14 28.6167 -83.1333 154° Southeast 370 426 16,600 -1,646 Descending Tampa TRACON
10:15 28.5333 -83.0833 152° Southeast 360 414 15,100 -1,550 Descending Tampa TRACON
10:16 28.4500 -83.0167 145° Southeast 352 405 13,500 -1,526 Descending Tampa TRACON
10:17 28.3833 -82.9833 156° South 316 364 12,200 -1,700 Descending Tampa TRACON
10:18 28.3000 -82.9333 152° Southeast 270 311 10,100 -2,048 Descending Tampa TRACON
10:19 28.2500 -82.8667 130° Southeast 273 314 7,900 -2,150 Descending Tampa TRACON
10:20 28.2000 -82.8000 130° Southeast 265 305 5,800 -1,950 Descending Tampa TRACON
10:21 28.1667 -82.7500 127° Southeast 222 255 4,000 -1,400 Descending Tampa TRACON
10:22 28.1167 -82.7333 164° South 180 207 3,000 -1,050 Descending Tampa TRACON
10:23 28.0833 -82.7167 156° South 157 181 1,900 -700 Descending Tampa TRACON
10:24 28.0333 -82.7167 180° South 154 177 1,600 -250 Descending Tampa TRACON
10:25 28.0000 -82.7000 156° South 137 158 1,400 -450 Descending Tampa TRACON
10:26 27.9667 -82.7000 180° South 133 153 700 -700 Descending Tampa TRACON